createdAt,value
2023-03-30T00:01:59.531Z,32.07
2023-03-30T00:04:45.932Z,32.20
2023-03-30T00:07:32.069Z,32.71
2023-03-30T00:10:19.352Z,32.59
2023-03-30T00:13:05.974Z,32.44
2023-03-30T00:15:52.706Z,32.84
2023-03-30T00:18:39.598Z,32.18
2023-03-30T00:21:25.854Z,32.56
2023-03-30T00:24:12.100Z,32.48
2023-03-30T00:26:57.916Z,32.37
2023-03-30T00:29:43.628Z,32.59
2023-03-30T00:32:29.990Z,32.37
2023-03-30T00:35:16.031Z,32.62
2023-03-30T00:38:03.297Z,32.54
2023-03-30T00:40:53.625Z,32.46
2023-03-30T00:44:34.005Z,33.05
2023-03-30T00:47:20.348Z,32.61
2023-03-30T00:50:08.071Z,32.68
2023-03-30T00:52:55.218Z,32.91
2023-03-30T00:55:41.735Z,32.89
2023-03-30T00:58:28.396Z,32.51
2023-03-30T01:01:16.274Z,32.74
2023-03-30T01:04:02.316Z,32.97
2023-03-30T01:06:52.214Z,32.85
2023-03-30T01:09:41.020Z,32.88
2023-03-30T01:12:27.725Z,32.63
2023-03-30T01:15:13.603Z,33.10
2023-03-30T01:18:17.618Z,32.98
2023-03-30T01:21:23.973Z,33.20
2023-03-30T01:24:16.069Z,32.89
2023-03-30T01:27:46.153Z,33.27
2023-03-30T01:30:44.395Z,33.33
2023-03-30T01:33:30.826Z,32.87
2023-03-30T01:36:31.244Z,33.33
2023-03-30T01:39:57.234Z,33.27
2023-03-30T01:42:55.412Z,33.12
2023-03-30T01:45:45.027Z,33.54
2023-03-30T01:48:55.979Z,33.08
2023-03-30T01:51:47.614Z,33.45
2023-03-30T01:54:38.447Z,33.45
2023-03-30T01:57:31.588Z,33.31
2023-03-30T02:00:21.306Z,33.04
2023-03-30T02:03:14.152Z,33.38
2023-03-30T02:06:04.992Z,33.36
2023-03-30T02:08:52.302Z,33.29
2023-03-30T02:11:41.867Z,33.50
2023-03-30T02:14:31.272Z,33.46
2023-03-30T02:17:24.778Z,33.40
2023-03-30T02:20:12.366Z,33.80
2023-03-30T02:22:58.296Z,33.59
2023-03-30T02:25:46.040Z,33.66
2023-03-30T02:28:32.588Z,33.77
2023-03-30T02:31:20.268Z,33.76
2023-03-30T02:34:10.531Z,33.69
2023-03-30T02:37:10.061Z,33.59
2023-03-30T02:40:23.923Z,33.82
2023-03-30T02:43:22.294Z,33.80
2023-03-30T02:46:11.494Z,33.76
2023-03-30T02:49:14.243Z,33.99
2023-03-30T02:52:11.694Z,33.86
2023-03-30T02:55:29.412Z,34.07
2023-03-30T02:58:37.170Z,33.95
2023-03-30T03:01:35.578Z,34.13
2023-03-30T03:04:34.261Z,33.99
2023-03-30T03:07:45.570Z,34.63
2023-03-30T03:10:31.461Z,34.45
2023-03-30T03:13:19.101Z,34.11
2023-03-30T03:16:08.019Z,34.56
2023-03-30T03:18:54.593Z,34.19
2023-03-30T03:21:40.655Z,34.40
2023-03-30T03:24:26.890Z,34.24
2023-03-30T03:27:38.720Z,34.42
2023-03-30T03:30:34.107Z,34.41
2023-03-30T03:33:29.010Z,34.53
2023-03-30T03:36:22.761Z,34.46
2023-03-30T03:39:11.886Z,34.82
2023-03-30T03:41:58.775Z,34.38
2023-03-30T03:44:44.736Z,34.23
2023-03-30T03:47:32.367Z,34.69
2023-03-30T03:50:18.744Z,34.47
2023-03-30T03:53:05.010Z,34.56
2023-03-30T03:55:52.171Z,34.38
2023-03-30T03:58:38.135Z,34.93
2023-03-30T04:01:25.705Z,34.36
2023-03-30T04:04:11.767Z,34.88
2023-03-30T04:06:58.433Z,34.90
2023-03-30T04:09:44.398Z,35.07
2023-03-30T04:12:59.609Z,34.61
2023-03-30T04:16:08.572Z,35.08
2023-03-30T04:19:13.504Z,34.85
2023-03-30T04:22:33.117Z,35.22
2023-03-30T04:25:40.075Z,35.28
2023-03-30T04:28:44.665Z,35.30
2023-03-30T04:31:50.997Z,34.95
2023-03-30T04:34:42.751Z,35.50
2023-03-30T04:37:52.365Z,35.59
2023-03-30T04:41:05.625Z,34.98
2023-03-30T04:44:09.493Z,35.58
2023-03-30T04:47:28.402Z,35.37
2023-03-30T04:50:32.935Z,35.58
2023-03-30T04:53:47.850Z,35.54
2023-03-30T04:56:37.475Z,35.49
2023-03-30T04:59:56.394Z,35.34
2023-03-30T05:02:42.307Z,35.69
2023-03-30T05:06:00.754Z,35.50
2023-03-30T05:09:16.687Z,35.87
2023-03-30T05:12:18.457Z,35.85
2023-03-30T05:15:13.322Z,36.05
2023-03-30T05:18:28.692Z,35.71
2023-03-30T05:21:33.221Z,35.78
2023-03-30T05:24:45.284Z,36.20
2023-03-30T05:27:58.180Z,36.15
2023-03-30T05:31:06.010Z,36.36
2023-03-30T05:34:24.926Z,36.72
2023-03-30T05:37:11.120Z,36.12
2023-03-30T05:40:02.031Z,36.14
2023-03-30T05:43:00.652Z,36.33
2023-03-30T05:46:02.570Z,36.49
2023-03-30T05:49:01.023Z,36.63
2023-03-30T05:52:01.211Z,36.47
2023-03-30T05:55:10.322Z,36.72
2023-03-30T05:58:06.709Z,36.64
2023-03-30T06:01:21.574Z,36.42
2023-03-30T06:04:08.932Z,36.66
2023-03-30T06:06:56.306Z,36.55
2023-03-30T06:09:42.309Z,37.09
2023-03-30T06:12:45.494Z,37.18
2023-03-30T06:15:46.155Z,36.86
2023-03-30T06:18:37.989Z,37.22
2023-03-30T06:21:27.148Z,37.15
2023-03-30T06:24:41.594Z,37.20
2023-03-30T06:27:31.731Z,37.35
2023-03-30T06:30:18.465Z,37.02
2023-03-30T06:33:08.057Z,37.07
2023-03-30T06:35:58.428Z,37.13
2023-03-30T06:38:44.768Z,37.23
2023-03-30T06:41:31.935Z,36.96
2023-03-30T06:44:18.086Z,37.22
2023-03-30T06:47:06.356Z,37.13
2023-03-30T06:49:52.552Z,37.24
2023-03-30T06:53:17.128Z,36.82
2023-03-30T06:56:07.741Z,37.02
2023-03-30T06:59:00.205Z,36.73
2023-03-30T07:01:46.474Z,37.07
2023-03-30T07:04:52.040Z,36.93
2023-03-30T07:07:58.369Z,36.69
2023-03-30T07:10:44.553Z,36.91
2023-03-30T07:13:33.330Z,36.86
2023-03-30T07:16:19.756Z,36.76
2023-03-30T07:19:06.664Z,36.69
2023-03-30T07:21:52.561Z,36.26
2023-03-30T07:24:42.540Z,36.76
2023-03-30T07:27:29.247Z,36.20
2023-03-30T07:30:21.730Z,36.36
2023-03-30T07:33:14.869Z,36.39
2023-03-30T07:36:01.790Z,36.26
2023-03-30T07:38:48.146Z,36.24
2023-03-30T07:41:34.696Z,35.78
2023-03-30T07:44:21.742Z,36.02
2023-03-30T07:47:08.583Z,35.85
2023-03-30T07:49:56.456Z,36.09
2023-03-30T07:52:43.015Z,36.09
2023-03-30T07:55:30.861Z,35.99
2023-03-30T07:58:27.631Z,35.59
2023-03-30T08:01:13.758Z,35.71
2023-03-30T08:04:27.941Z,35.99
2023-03-30T08:07:14.575Z,35.42
2023-03-30T08:10:00.587Z,35.76
2023-03-30T08:12:46.367Z,35.42
2023-03-30T08:15:32.107Z,35.30
2023-03-30T08:18:17.799Z,35.33
2023-03-30T08:21:04.295Z,35.42
2023-03-30T08:23:50.774Z,35.36
2023-03-30T08:26:37.252Z,35.16
2023-03-30T08:29:23.573Z,35.33
2023-03-30T08:32:09.380Z,35.09
2023-03-30T08:34:55.315Z,35.09
2023-03-30T08:37:41.140Z,34.81
2023-03-30T08:40:27.216Z,35.15
2023-03-30T08:43:29.447Z,34.92
2023-03-30T08:46:17.300Z,34.67
2023-03-30T08:49:05.580Z,34.53
2023-03-30T08:51:52.310Z,34.75
2023-03-30T08:54:38.105Z,34.84
2023-03-30T08:57:48.416Z,34.63
2023-03-30T09:00:51.565Z,34.65
2023-03-30T09:03:42.944Z,34.76
2023-03-30T09:06:49.433Z,34.49
2023-03-30T09:09:42.204Z,34.34
2023-03-30T09:12:37.563Z,34.38
2023-03-30T09:15:30.513Z,34.17
2023-03-30T09:18:35.007Z,34.44
2023-03-30T09:21:21.606Z,34.77
2023-03-30T09:24:16.047Z,34.21
2023-03-30T09:27:08.231Z,34.39
2023-03-30T09:29:55.909Z,34.51
2023-03-30T09:32:44.970Z,34.00
2023-03-30T09:35:39.406Z,32.45
2023-03-30T09:38:25.545Z,33.66
2023-03-30T09:41:24.504Z,33.89
2023-03-30T09:44:19.865Z,33.11
2023-03-30T09:47:36.904Z,33.65
2023-03-30T09:50:26.856Z,33.61
2023-03-30T09:53:24.942Z,33.31
2023-03-30T09:56:22.447Z,33.57
2023-03-30T09:59:29.570Z,33.01
2023-03-30T10:02:18.261Z,33.12
2023-03-30T10:05:04.719Z,33.42
2023-03-30T10:07:59.131Z,33.15
2023-03-30T10:10:45.469Z,33.00
2023-03-30T10:13:34.282Z,33.09
2023-03-30T10:16:26.271Z,32.89
2023-03-30T10:19:22.079Z,33.04
2023-03-30T10:22:19.013Z,31.20
2023-03-30T10:25:10.223Z,33.10
2023-03-30T10:27:58.379Z,33.03
2023-03-30T10:30:51.777Z,32.82
2023-03-30T10:33:43.184Z,33.13
2023-03-30T10:36:39.980Z,32.83
2023-03-30T10:39:28.222Z,32.95
2023-03-30T10:42:16.645Z,32.82
2023-03-30T10:45:06.948Z,32.29
2023-03-30T10:48:03.090Z,32.74
2023-03-30T10:51:07.795Z,32.82
2023-03-30T10:54:03.882Z,32.81
2023-03-30T10:56:53.942Z,32.52
2023-03-30T10:59:49.252Z,32.41
2023-03-30T11:03:29.780Z,32.42
2023-03-30T11:06:28.143Z,32.22
2023-03-30T11:09:17.734Z,32.58
2023-03-30T11:12:17.667Z,32.55
2023-03-30T11:15:07.785Z,32.38
2023-03-30T11:17:56.407Z,32.13
2023-03-30T11:20:51.765Z,32.41
2023-03-30T11:23:53.434Z,32.28
2023-03-30T11:26:46.052Z,32.10
2023-03-30T11:29:39.056Z,32.83
2023-03-30T11:32:26.312Z,32.61
2023-03-30T11:35:35.281Z,31.37
2023-03-30T11:39:07.103Z,32.52
2023-03-30T11:42:00.122Z,32.00
2023-03-30T11:44:46.636Z,31.91
2023-03-30T11:47:41.913Z,31.92
2023-03-30T11:50:52.094Z,31.75
2023-03-30T11:53:52.342Z,31.39
2023-03-30T11:56:47.236Z,31.39
2023-03-30T11:59:46.303Z,31.77
2023-03-30T12:02:48.755Z,31.71
2023-03-30T12:05:44.239Z,31.79
2023-03-30T12:09:11.728Z,31.63
2023-03-30T12:12:15.987Z,30.80
2023-03-30T12:15:14.084Z,31.62
2023-03-30T12:18:05.483Z,30.73
2023-03-30T12:21:27.298Z,31.56
2023-03-30T12:24:18.660Z,31.35
2023-03-30T12:27:06.381Z,31.34
2023-03-30T12:32:59.061Z,31.16
2023-03-30T12:35:48.078Z,31.31
2023-03-30T12:38:46.281Z,30.34
2023-03-30T12:41:49.979Z,31.05
2023-03-30T12:44:50.799Z,31.22
2023-03-30T12:48:01.667Z,30.74
2023-03-30T12:51:18.190Z,30.58
2023-03-30T12:54:51.787Z,30.93
2023-03-30T12:58:13.403Z,30.71
2023-03-30T13:01:27.336Z,30.41
2023-03-30T13:04:23.945Z,30.39
2023-03-30T13:07:22.293Z,30.42
2023-03-30T13:10:43.956Z,30.18
2023-03-30T13:13:54.681Z,30.30
2023-03-30T13:16:48.918Z,29.46
2023-03-30T13:19:34.726Z,30.11
2023-03-30T13:22:27.934Z,29.64
2023-03-30T13:25:20.334Z,30.04
2023-03-30T13:28:44.059Z,30.36
2023-03-30T13:31:48.383Z,30.01
2023-03-30T13:35:12.395Z,30.35
2023-03-30T13:38:16.843Z,29.29
2023-03-30T13:41:20.997Z,29.62
2023-03-30T13:44:09.980Z,30.03
2023-03-30T13:47:22.931Z,29.93
2023-03-30T13:50:27.373Z,30.04
2023-03-30T13:53:15.428Z,30.17
2023-03-30T13:56:01.981Z,29.95
2023-03-30T13:59:10.089Z,30.00
2023-03-30T14:01:58.808Z,29.94
2023-03-30T14:04:45.350Z,29.93
2023-03-30T14:07:42.747Z,29.32
2023-03-30T14:10:29.207Z,28.92
2023-03-30T14:13:16.355Z,28.75
2023-03-30T14:16:05.009Z,28.89
2023-03-30T14:18:51.455Z,28.38
2023-03-30T14:21:38.062Z,28.33
2023-03-30T14:25:03.234Z,28.29
2023-03-30T14:27:49.330Z,27.93
2023-03-30T14:30:35.238Z,27.16
2023-03-30T14:33:23.372Z,26.73
2023-03-30T14:36:12.847Z,26.63
2023-03-30T14:38:59.121Z,27.04
2023-03-30T14:41:45.132Z,26.56
2023-03-30T14:44:30.810Z,26.23
2023-03-30T14:47:19.802Z,25.67
2023-03-30T14:50:10.751Z,25.27
2023-03-30T14:52:57.077Z,25.12
2023-03-30T14:55:42.994Z,25.30
2023-03-30T14:58:31.598Z,25.18
2023-03-30T15:01:23.712Z,24.74
2023-03-30T15:04:17.345Z,24.64
2023-03-30T15:07:03.879Z,24.78
2023-03-30T15:09:57.602Z,24.17
2023-03-30T15:12:48.904Z,24.21
2023-03-30T15:15:35.522Z,24.50
2023-03-30T15:18:25.106Z,24.61
2023-03-30T15:21:12.928Z,24.47
2023-03-30T15:24:00.467Z,24.13
2023-03-30T15:26:48.854Z,23.96
2023-03-30T15:29:34.778Z,23.97
2023-03-30T15:32:35.234Z,23.71
2023-03-30T15:35:36.466Z,23.49
2023-03-30T15:38:31.400Z,23.19
2023-03-30T15:41:18.927Z,23.90
2023-03-30T15:44:12.931Z,23.91
2023-03-30T15:47:00.878Z,24.39
2023-03-30T15:49:49.641Z,24.35
2023-03-30T15:52:37.394Z,24.53
2023-03-30T15:55:29.283Z,24.36
2023-03-30T15:58:19.166Z,23.94
2023-03-30T16:01:06.134Z,24.65
2023-03-30T16:03:57.090Z,24.70
2023-03-30T16:06:45.195Z,24.84
2023-03-30T16:09:32.675Z,24.74
2023-03-30T16:12:22.185Z,24.82
2023-03-30T16:15:14.055Z,25.05
2023-03-30T16:18:00.699Z,25.11
2023-03-30T16:20:46.607Z,25.21
2023-03-30T16:23:32.673Z,25.44
2023-03-30T16:26:18.864Z,25.60
2023-03-30T16:29:04.782Z,25.73
2023-03-30T16:31:51.607Z,25.75
2023-03-30T16:34:37.635Z,25.81
2023-03-30T16:37:23.557Z,26.01
2023-03-30T16:40:24.061Z,26.02
2023-03-30T16:43:10.404Z,26.28
2023-03-30T16:45:57.130Z,26.26
2023-03-30T16:48:43.058Z,26.34
2023-03-30T16:51:29.473Z,26.43
2023-03-30T16:54:29.552Z,26.47
2023-03-30T16:57:17.504Z,26.65
2023-03-30T17:00:15.375Z,26.90
2023-03-30T17:03:01.688Z,26.67
2023-03-30T17:05:51.484Z,26.86
2023-03-30T17:08:37.499Z,27.05
2023-03-30T17:11:23.359Z,27.00
2023-03-30T17:14:09.478Z,26.98
2023-03-30T17:16:55.668Z,27.08
2023-03-30T17:19:42.045Z,27.18
2023-03-30T17:22:27.858Z,27.32
2023-03-30T17:25:14.511Z,27.31
2023-03-30T17:28:01.163Z,27.48
2023-03-30T17:30:47.133Z,27.49
2023-03-30T17:33:34.356Z,27.66
2023-03-30T17:36:22.211Z,27.56
2023-03-30T17:39:12.642Z,27.71
2023-03-30T17:42:00.136Z,28.05
2023-03-30T17:44:46.385Z,27.88
2023-03-30T17:47:32.133Z,28.17
2023-03-30T17:50:28.842Z,28.43
2023-03-30T17:53:18.682Z,28.13
2023-03-30T17:56:05.159Z,28.30
2023-03-30T17:58:53.194Z,28.33
2023-03-30T18:01:39.901Z,28.15
2023-03-30T18:04:27.166Z,28.45
2023-03-30T18:07:13.562Z,28.63
2023-03-30T18:09:59.386Z,28.71
2023-03-30T18:12:45.789Z,28.69
2023-03-30T18:15:32.712Z,28.75
2023-03-30T18:18:23.031Z,28.71
2023-03-30T18:21:10.147Z,28.66
2023-03-30T18:23:57.122Z,28.86
2023-03-30T18:26:43.811Z,28.96
2023-03-30T18:29:30.544Z,28.93
2023-03-30T18:32:16.571Z,28.97
2023-03-30T18:35:02.688Z,28.93
2023-03-30T18:37:49.092Z,29.31
2023-03-30T18:40:45.510Z,29.02
2023-03-30T18:43:31.589Z,29.48
2023-03-30T18:46:17.587Z,29.27
2023-03-30T18:49:03.676Z,29.62
2023-03-30T18:51:49.744Z,29.47
2023-03-30T18:54:40.617Z,29.40
2023-03-30T18:57:27.202Z,29.66
2023-03-30T19:00:26.424Z,30.11
2023-03-30T19:03:15.459Z,29.45
2023-03-30T19:06:01.719Z,29.83
2023-03-30T19:08:47.635Z,29.98
2023-03-30T19:11:33.552Z,29.93
2023-03-30T19:14:19.406Z,30.26
2023-03-30T19:17:05.536Z,30.08
2023-03-30T19:19:51.614Z,30.05
2023-03-30T19:22:37.362Z,30.38
2023-03-30T19:25:24.726Z,30.52
2023-03-30T19:28:11.229Z,30.71
2023-03-30T19:31:06.852Z,30.81
2023-03-30T19:33:53.046Z,30.61
2023-03-30T19:36:38.853Z,31.05
2023-03-30T19:39:24.728Z,30.67
2023-03-30T19:42:10.688Z,30.48
2023-03-30T19:44:56.678Z,30.84
2023-03-30T19:47:43.805Z,30.70
2023-03-30T19:50:30.577Z,31.00
2023-03-30T19:53:16.727Z,31.03
2023-03-30T19:56:02.936Z,31.00
2023-03-30T19:58:49.182Z,31.17
2023-03-30T20:01:36.263Z,31.15
2023-03-30T20:04:22.615Z,31.00
2023-03-30T20:07:09.195Z,31.36
2023-03-30T20:09:54.966Z,31.29
2023-03-30T20:12:41.298Z,31.39
2023-03-30T20:15:27.341Z,31.19
2023-03-30T20:18:14.324Z,31.55
2023-03-30T20:21:03.476Z,31.48
2023-03-30T20:23:49.998Z,31.68
2023-03-30T20:26:36.016Z,31.82
2023-03-30T20:29:22.372Z,31.89
2023-03-30T20:32:08.348Z,31.70
2023-03-30T20:34:54.946Z,31.85
2023-03-30T20:37:41.315Z,32.35
2023-03-30T20:40:27.461Z,31.74
2023-03-30T20:43:13.655Z,32.06
2023-03-30T20:46:03.420Z,32.18
2023-03-30T20:48:54.103Z,31.98
2023-03-30T20:51:40.259Z,31.85
2023-03-30T20:54:29.606Z,32.24
2023-03-30T20:57:16.027Z,32.20
2023-03-30T21:00:09.557Z,32.57
2023-03-30T21:02:55.628Z,32.21
2023-03-30T21:05:41.476Z,32.45
2023-03-30T21:08:27.674Z,32.52
2023-03-30T21:11:13.470Z,32.35
2023-03-30T21:13:59.480Z,32.45
2023-03-30T21:16:45.472Z,32.54
2023-03-30T21:19:31.569Z,32.43
2023-03-30T21:22:18.887Z,32.63
2023-03-30T21:25:05.345Z,32.42
2023-03-30T21:27:51.265Z,32.57
2023-03-30T21:30:37.107Z,32.94
2023-03-30T21:33:24.659Z,32.85
2023-03-30T21:36:11.629Z,32.93
2023-03-30T21:38:59.482Z,32.78
2023-03-30T21:41:45.586Z,32.59
2023-03-30T21:44:35.846Z,33.09
2023-03-30T21:47:21.501Z,32.83
2023-03-30T21:50:08.105Z,32.89
2023-03-30T21:52:58.240Z,33.06
2023-03-30T21:55:48.436Z,33.06
2023-03-30T21:58:35.012Z,32.96
2023-03-30T22:01:24.161Z,33.26
2023-03-30T22:04:10.201Z,33.29
2023-03-30T22:06:56.551Z,33.17
2023-03-30T22:09:42.504Z,33.11
2023-03-30T22:12:28.352Z,33.33
2023-03-30T22:15:14.284Z,33.58
2023-03-30T22:18:01.122Z,33.45
2023-03-30T22:20:47.382Z,33.33
2023-03-30T22:23:33.592Z,33.54
2023-03-30T22:26:19.766Z,33.52
2023-03-30T22:29:05.842Z,33.41
2023-03-30T22:31:56.360Z,33.44
2023-03-30T22:34:42.501Z,33.56
2023-03-30T22:37:29.978Z,33.51
2023-03-30T22:40:16.457Z,33.83
2023-03-30T22:43:05.615Z,33.64
2023-03-30T22:45:51.717Z,33.52
2023-03-30T22:48:41.494Z,33.70
2023-03-30T22:51:27.582Z,33.87
2023-03-30T22:54:13.445Z,34.00
2023-03-30T22:57:00.268Z,33.89
2023-03-30T22:59:46.796Z,33.84
2023-03-30T23:02:32.935Z,33.80
2023-03-30T23:05:21.355Z,33.79
2023-03-30T23:08:07.216Z,33.87
2023-03-30T23:10:53.970Z,33.95
2023-03-30T23:13:42.290Z,33.86
2023-03-30T23:16:28.854Z,34.06
2023-03-30T23:19:14.958Z,33.81
2023-03-30T23:22:01.241Z,33.92
2023-03-30T23:24:47.271Z,33.86
2023-03-30T23:27:36.950Z,34.03
2023-03-30T23:30:23.251Z,33.89
2023-03-30T23:33:09.182Z,34.14
2023-03-30T23:35:55.101Z,34.10
2023-03-30T23:38:41.494Z,34.07
2023-03-30T23:41:29.084Z,34.10
2023-03-30T23:44:15.518Z,34.42
2023-03-30T23:47:02.358Z,34.28
2023-03-30T23:49:48.154Z,34.60
2023-03-30T23:52:34.560Z,34.27
2023-03-30T23:55:20.439Z,34.49
2023-03-30T23:58:06.341Z,34.43
